sensor_id;sensor_type;location;lat;lon;timestamp;pressure;altitude;pressure_sealevel;temperature;humidity
70338;BME280;57757;53.198;19.646;2022-08-19T00:01:57;99817.11;;;22.79;47.17
70338;BME280;57757;53.198;19.646;2022-08-19T00:04:30;99815.34;;;22.79;47.19
70338;BME280;57757;53.198;19.646;2022-08-19T00:06:59;99814.95;;;22.79;47.15
70338;BME280;57757;53.198;19.646;2022-08-19T00:09:27;99814.45;;;22.79;47.37
70338;BME280;57757;53.198;19.646;2022-08-19T00:11:56;99813.00;;;22.79;47.44
70338;BME280;57757;53.198;19.646;2022-08-19T00:14:26;99812.27;;;22.80;47.39
70338;BME280;57757;53.198;19.646;2022-08-19T00:16:54;99810.48;;;22.80;47.47
70338;BME280;57757;53.198;19.646;2022-08-19T00:19:23;99815.33;;;22.79;47.61
70338;BME280;57757;53.198;19.646;2022-08-19T00:21:51;99818.06;;;22.78;47.68
70338;BME280;57757;53.198;19.646;2022-08-19T00:24:18;99823.20;;;22.76;47.93
70338;BME280;57757;53.198;19.646;2022-08-19T00:26:47;99824.91;;;22.75;47.85
70338;BME280;57757;53.198;19.646;2022-08-19T00:29:17;99828.98;;;22.73;47.97
70338;BME280;57757;53.198;19.646;2022-08-19T00:31:46;99828.92;;;22.71;47.93
70338;BME280;57757;53.198;19.646;2022-08-19T00:34:17;99828.71;;;22.69;48.10
70338;BME280;57757;53.198;19.646;2022-08-19T00:36:45;99826.90;;;22.67;48.03
70338;BME280;57757;53.198;19.646;2022-08-19T00:39:13;99831.14;;;22.65;48.08
70338;BME280;57757;53.198;19.646;2022-08-19T00:41:42;99829.71;;;22.63;48.24
70338;BME280;57757;53.198;19.646;2022-08-19T00:44:13;99831.30;;;22.63;48.31
70338;BME280;57757;53.198;19.646;2022-08-19T00:46:44;99827.48;;;22.64;48.34
70338;BME280;57757;53.198;19.646;2022-08-19T00:52:00;99817.63;;;22.65;48.40
70338;BME280;57757;53.198;19.646;2022-08-19T00:54:29;99817.74;;;22.64;48.58
70338;BME280;57757;53.198;19.646;2022-08-19T00:56:59;99812.16;;;22.63;48.58
70338;BME280;57757;53.198;19.646;2022-08-19T00:59:29;99809.66;;;22.61;48.67
70338;BME280;57757;53.198;19.646;2022-08-19T01:02:16;99807.94;;;22.58;48.70
70338;BME280;57757;53.198;19.646;2022-08-19T01:04:44;99811.09;;;22.57;48.69
70338;BME280;57757;53.198;19.646;2022-08-19T01:07:12;99811.98;;;22.54;48.84
70338;BME280;57757;53.198;19.646;2022-08-19T01:09:43;99819.48;;;22.51;48.87
70338;BME280;57757;53.198;19.646;2022-08-19T01:12:11;99818.04;;;22.49;48.91
70338;BME280;57757;53.198;19.646;2022-08-19T01:14:40;99818.95;;;22.47;48.93
70338;BME280;57757;53.198;19.646;2022-08-19T01:17:09;99814.80;;;22.45;49.06
70338;BME280;57757;53.198;19.646;2022-08-19T01:19:40;99813.45;;;22.45;49.12
70338;BME280;57757;53.198;19.646;2022-08-19T01:24:43;99815.45;;;22.42;49.30
70338;BME280;57757;53.198;19.646;2022-08-19T01:27:16;99815.82;;;22.42;49.48
70338;BME280;57757;53.198;19.646;2022-08-19T01:29:45;99818.30;;;22.42;49.56
70338;BME280;57757;53.198;19.646;2022-08-19T01:32:15;99817.31;;;22.40;49.45
70338;BME280;57757;53.198;19.646;2022-08-19T01:35:02;99819.52;;;22.39;49.66
70338;BME280;57757;53.198;19.646;2022-08-19T01:37:42;99824.05;;;22.36;49.86
70338;BME280;57757;53.198;19.646;2022-08-19T01:40:10;99825.48;;;22.33;49.97
70338;BME280;57757;53.198;19.646;2022-08-19T01:42:38;99825.67;;;22.31;50.02
70338;BME280;57757;53.198;19.646;2022-08-19T01:45:06;99824.66;;;22.30;50.10
70338;BME280;57757;53.198;19.646;2022-08-19T01:47:36;99821.89;;;22.29;50.18
70338;BME280;57757;53.198;19.646;2022-08-19T01:50:07;99822.98;;;22.29;50.31
70338;BME280;57757;53.198;19.646;2022-08-19T01:52:36;99817.23;;;22.30;50.46
70338;BME280;57757;53.198;19.646;2022-08-19T01:55:07;99817.48;;;22.31;50.40
70338;BME280;57757;53.198;19.646;2022-08-19T01:57:36;99813.73;;;22.31;50.61
70338;BME280;57757;53.198;19.646;2022-08-19T02:00:07;99819.01;;;22.32;50.61
70338;BME280;57757;53.198;19.646;2022-08-19T02:02:35;99817.66;;;22.31;50.65
70338;BME280;57757;53.198;19.646;2022-08-19T02:05:03;99818.08;;;22.30;50.65
70338;BME280;57757;53.198;19.646;2022-08-19T02:07:31;99819.55;;;22.30;50.66
70338;BME280;57757;53.198;19.646;2022-08-19T02:10:03;99816.34;;;22.30;50.76
70338;BME280;57757;53.198;19.646;2022-08-19T02:12:39;99818.16;;;22.32;50.70
70338;BME280;57757;53.198;19.646;2022-08-19T02:15:06;99816.23;;;22.31;50.86
70338;BME280;57757;53.198;19.646;2022-08-19T02:17:36;99812.93;;;22.33;50.77
70338;BME280;57757;53.198;19.646;2022-08-19T02:20:04;99807.23;;;22.33;50.87
70338;BME280;57757;53.198;19.646;2022-08-19T02:22:33;99802.92;;;22.32;50.99
70338;BME280;57757;53.198;19.646;2022-08-19T02:25:01;99799.13;;;22.30;51.05
70338;BME280;57757;53.198;19.646;2022-08-19T02:27:29;99798.09;;;22.28;51.03
70338;BME280;57757;53.198;19.646;2022-08-19T02:29:56;99790.12;;;22.25;51.10
70338;BME280;57757;53.198;19.646;2022-08-19T02:32:24;99791.23;;;22.23;51.08
70338;BME280;57757;53.198;19.646;2022-08-19T02:34:51;99787.91;;;22.20;51.20
70338;BME280;57757;53.198;19.646;2022-08-19T02:37:18;99789.23;;;22.17;51.29
70338;BME280;57757;53.198;19.646;2022-08-19T02:40:02;99789.16;;;22.13;51.42
70338;BME280;57757;53.198;19.646;2022-08-19T02:42:39;99793.88;;;22.11;51.39
70338;BME280;57757;53.198;19.646;2022-08-19T02:45:08;99789.39;;;22.10;51.35
70338;BME280;57757;53.198;19.646;2022-08-19T02:47:36;99788.55;;;22.10;51.55
70338;BME280;57757;53.198;19.646;2022-08-19T02:50:05;99785.58;;;22.09;51.54
70338;BME280;57757;53.198;19.646;2022-08-19T02:52:34;99779.73;;;22.07;51.66
70338;BME280;57757;53.198;19.646;2022-08-19T02:55:02;99778.81;;;22.03;51.69
70338;BME280;57757;53.198;19.646;2022-08-19T02:57:30;99780.98;;;22.00;51.83
70338;BME280;57757;53.198;19.646;2022-08-19T02:59:59;99781.88;;;21.98;51.84
70338;BME280;57757;53.198;19.646;2022-08-19T03:02:27;99781.27;;;21.94;51.89
70338;BME280;57757;53.198;19.646;2022-08-19T03:04:54;99779.50;;;21.91;51.86
70338;BME280;57757;53.198;19.646;2022-08-19T03:07:22;99780.52;;;21.89;51.92
70338;BME280;57757;53.198;19.646;2022-08-19T03:09:49;99784.68;;;21.88;52.07
70338;BME280;57757;53.198;19.646;2022-08-19T03:12:17;99781.87;;;21.88;52.13
70338;BME280;57757;53.198;19.646;2022-08-19T03:14:45;99782.80;;;21.87;52.27
70338;BME280;57757;53.198;19.646;2022-08-19T03:17:13;99786.05;;;21.86;52.33
70338;BME280;57757;53.198;19.646;2022-08-19T03:19:41;99785.95;;;21.85;52.23
70338;BME280;57757;53.198;19.646;2022-08-19T03:22:10;99788.96;;;21.83;52.33
70338;BME280;57757;53.198;19.646;2022-08-19T03:24:38;99790.70;;;21.81;52.36
70338;BME280;57757;53.198;19.646;2022-08-19T03:27:06;99797.52;;;21.80;52.46
70338;BME280;57757;53.198;19.646;2022-08-19T03:29:36;99796.72;;;21.81;52.59
70338;BME280;57757;53.198;19.646;2022-08-19T03:32:10;99800.45;;;21.83;52.58
70338;BME280;57757;53.198;19.646;2022-08-19T03:34:59;99808.73;;;21.86;52.56
70338;BME280;57757;53.198;19.646;2022-08-19T03:37:27;99811.25;;;21.88;52.72
70338;BME280;57757;53.198;19.646;2022-08-19T03:39:55;99812.50;;;21.90;52.61
70338;BME280;57757;53.198;19.646;2022-08-19T03:42:23;99811.33;;;21.92;52.74
70338;BME280;57757;53.198;19.646;2022-08-19T03:45:10;99811.52;;;21.94;52.80
70338;BME280;57757;53.198;19.646;2022-08-19T03:47:38;99816.16;;;21.96;52.86
70338;BME280;57757;53.198;19.646;2022-08-19T03:50:05;99819.73;;;21.96;52.89
70338;BME280;57757;53.198;19.646;2022-08-19T03:52:33;99817.67;;;21.95;52.88
70338;BME280;57757;53.198;19.646;2022-08-19T03:55:02;99817.59;;;21.96;53.04
70338;BME280;57757;53.198;19.646;2022-08-19T03:57:30;99819.31;;;21.99;53.01
70338;BME280;57757;53.198;19.646;2022-08-19T03:59:58;99819.95;;;22.02;53.12
70338;BME280;57757;53.198;19.646;2022-08-19T04:02:41;99813.88;;;22.05;53.21
70338;BME280;57757;53.198;19.646;2022-08-19T04:05:27;99814.80;;;22.07;53.28
70338;BME280;57757;53.198;19.646;2022-08-19T04:07:55;99815.48;;;22.09;53.23
70338;BME280;57757;53.198;19.646;2022-08-19T04:10:27;99814.70;;;22.13;53.28
70338;BME280;57757;53.198;19.646;2022-08-19T04:12:55;99815.63;;;22.14;53.39
70338;BME280;57757;53.198;19.646;2022-08-19T04:15:23;99812.14;;;22.16;53.24
70338;BME280;57757;53.198;19.646;2022-08-19T04:17:50;99804.94;;;22.20;53.34
70338;BME280;57757;53.198;19.646;2022-08-19T04:20:18;99802.70;;;22.23;53.28
70338;BME280;57757;53.198;19.646;2022-08-19T04:22:45;99796.41;;;22.27;53.34
70338;BME280;57757;53.198;19.646;2022-08-19T04:25:13;99788.96;;;22.31;53.41
70338;BME280;57757;53.198;19.646;2022-08-19T04:27:40;99778.98;;;22.36;53.44
70338;BME280;57757;53.198;19.646;2022-08-19T04:30:14;99771.27;;;22.43;53.53
70338;BME280;57757;53.198;19.646;2022-08-19T04:32:42;99769.98;;;22.48;53.51
70338;BME280;57757;53.198;19.646;2022-08-19T04:35:11;99772.86;;;22.54;53.55
70338;BME280;57757;53.198;19.646;2022-08-19T04:37:45;99778.70;;;22.58;53.41
70338;BME280;57757;53.198;19.646;2022-08-19T04:40:12;99785.04;;;22.63;53.45
70338;BME280;57757;53.198;19.646;2022-08-19T04:42:56;99790.67;;;22.71;53.50
70338;BME280;57757;53.198;19.646;2022-08-19T04:45:23;99791.20;;;22.77;53.45
70338;BME280;57757;53.198;19.646;2022-08-19T04:47:55;99790.54;;;22.85;53.56
70338;BME280;57757;53.198;19.646;2022-08-19T04:50:45;99785.02;;;22.95;53.50
70338;BME280;57757;53.198;19.646;2022-08-19T04:53:13;99782.85;;;23.01;53.55
70338;BME280;57757;53.198;19.646;2022-08-19T04:55:41;99776.79;;;23.06;53.43
70338;BME280;57757;53.198;19.646;2022-08-19T04:58:09;99773.53;;;23.11;53.51
70338;BME280;57757;53.198;19.646;2022-08-19T05:00:39;99774.27;;;23.15;53.48
70338;BME280;57757;53.198;19.646;2022-08-19T05:03:07;99770.63;;;23.19;53.47
70338;BME280;57757;53.198;19.646;2022-08-19T05:05:40;99769.56;;;23.20;53.44
70338;BME280;57757;53.198;19.646;2022-08-19T05:08:13;99779.25;;;23.23;53.44
70338;BME280;57757;53.198;19.646;2022-08-19T05:10:41;99784.60;;;23.25;53.39
70338;BME280;57757;53.198;19.646;2022-08-19T05:13:09;99781.83;;;23.29;53.37
70338;BME280;57757;53.198;19.646;2022-08-19T05:15:38;99777.99;;;23.32;53.28
70338;BME280;57757;53.198;19.646;2022-08-19T05:18:05;99780.08;;;23.37;53.38
70338;BME280;57757;53.198;19.646;2022-08-19T05:20:49;99785.09;;;23.43;53.40
70338;BME280;57757;53.198;19.646;2022-08-19T05:23:32;99786.17;;;23.52;53.41
70338;BME280;57757;53.198;19.646;2022-08-19T05:26:00;99783.08;;;23.59;53.41
70338;BME280;57757;53.198;19.646;2022-08-19T05:28:27;99790.09;;;23.66;53.47
70338;BME280;57757;53.198;19.646;2022-08-19T05:30:57;99787.29;;;23.74;53.37
70338;BME280;57757;53.198;19.646;2022-08-19T05:33:25;99789.86;;;23.81;53.28
70338;BME280;57757;53.198;19.646;2022-08-19T05:35:52;99792.86;;;23.88;53.32
70338;BME280;57757;53.198;19.646;2022-08-19T05:38:20;99795.90;;;23.94;53.30
70338;BME280;57757;53.198;19.646;2022-08-19T05:40:48;99803.66;;;24.01;53.29
70338;BME280;57757;53.198;19.646;2022-08-19T05:43:16;99807.27;;;24.08;53.17
70338;BME280;57757;53.198;19.646;2022-08-19T05:45:45;99806.84;;;24.13;53.31
70338;BME280;57757;53.198;19.646;2022-08-19T05:48:13;99810.30;;;24.21;53.27
70338;BME280;57757;53.198;19.646;2022-08-19T05:50:41;99816.32;;;24.27;53.24
70338;BME280;57757;53.198;19.646;2022-08-19T05:53:09;99816.02;;;24.35;53.12
70338;BME280;57757;53.198;19.646;2022-08-19T05:55:38;99812.98;;;24.44;53.10
70338;BME280;57757;53.198;19.646;2022-08-19T05:58:06;99807.48;;;24.51;53.07
70338;BME280;57757;53.198;19.646;2022-08-19T06:00:36;99805.79;;;24.59;53.02
70338;BME280;57757;53.198;19.646;2022-08-19T06:03:04;99806.50;;;24.67;53.02
70338;BME280;57757;53.198;19.646;2022-08-19T06:05:39;99809.39;;;24.74;52.84
70338;BME280;57757;53.198;19.646;2022-08-19T06:08:16;99805.42;;;24.81;52.99
70338;BME280;57757;53.198;19.646;2022-08-19T06:10:45;99804.21;;;24.87;52.94
70338;BME280;57757;53.198;19.646;2022-08-19T06:13:13;99799.48;;;24.92;52.79
70338;BME280;57757;53.198;19.646;2022-08-19T06:15:41;99801.35;;;24.99;52.72
70338;BME280;57757;53.198;19.646;2022-08-19T06:18:12;99802.30;;;25.08;52.74
70338;BME280;57757;53.198;19.646;2022-08-19T06:20:41;99798.98;;;25.17;52.73
70338;BME280;57757;53.198;19.646;2022-08-19T06:23:22;99793.74;;;25.28;52.59
70338;BME280;57757;53.198;19.646;2022-08-19T06:25:51;99792.39;;;25.39;52.67
70338;BME280;57757;53.198;19.646;2022-08-19T06:28:18;99794.92;;;25.50;52.54
70338;BME280;57757;53.198;19.646;2022-08-19T06:30:46;99791.10;;;25.61;52.32
70338;BME280;57757;53.198;19.646;2022-08-19T06:33:14;99793.33;;;25.71;52.40
70338;BME280;57757;53.198;19.646;2022-08-19T06:35:41;99793.60;;;25.82;52.19
70338;BME280;57757;53.198;19.646;2022-08-19T06:38:09;99794.09;;;25.93;52.20
70338;BME280;57757;53.198;19.646;2022-08-19T06:40:37;99793.92;;;26.06;52.10
70338;BME280;57757;53.198;19.646;2022-08-19T06:43:05;99791.55;;;26.19;52.05
70338;BME280;57757;53.198;19.646;2022-08-19T06:45:37;99792.30;;;26.30;51.85
70338;BME280;57757;53.198;19.646;2022-08-19T06:48:06;99787.54;;;26.40;51.73
70338;BME280;57757;53.198;19.646;2022-08-19T06:50:34;99786.55;;;26.50;51.48
70338;BME280;57757;53.198;19.646;2022-08-19T06:53:06;99786.51;;;26.62;51.32
70338;BME280;57757;53.198;19.646;2022-08-19T06:55:33;99783.05;;;26.74;51.41
70338;BME280;57757;53.198;19.646;2022-08-19T06:58:04;99781.71;;;26.86;51.17
70338;BME280;57757;53.198;19.646;2022-08-19T07:00:32;99786.39;;;26.96;51.04
70338;BME280;57757;53.198;19.646;2022-08-19T07:03:01;99790.46;;;27.07;50.93
70338;BME280;57757;53.198;19.646;2022-08-19T07:05:40;99794.13;;;27.18;50.87
70338;BME280;57757;53.198;19.646;2022-08-19T07:08:13;99796.61;;;27.25;50.58
70338;BME280;57757;53.198;19.646;2022-08-19T07:10:45;99796.72;;;27.31;50.60
70338;BME280;57757;53.198;19.646;2022-08-19T07:13:13;99796.77;;;27.36;50.36
70338;BME280;57757;53.198;19.646;2022-08-19T07:15:41;99803.80;;;27.40;50.22
70338;BME280;57757;53.198;19.646;2022-08-19T07:18:09;99803.92;;;27.46;50.18
70338;BME280;57757;53.198;19.646;2022-08-19T07:20:40;99804.14;;;27.53;50.06
70338;BME280;57757;53.198;19.646;2022-08-19T07:23:09;99802.23;;;27.58;49.89
70338;BME280;57757;53.198;19.646;2022-08-19T07:25:43;99801.13;;;27.62;49.77
70338;BME280;57757;53.198;19.646;2022-08-19T07:28:19;99799.01;;;27.67;49.70
70338;BME280;57757;53.198;19.646;2022-08-19T07:30:52;99792.14;;;27.75;49.76
70338;BME280;57757;53.198;19.646;2022-08-19T07:33:20;99775.87;;;27.83;49.71
70338;BME280;57757;53.198;19.646;2022-08-19T07:35:49;99775.20;;;27.93;49.55
70338;BME280;57757;53.198;19.646;2022-08-19T07:38:17;99774.64;;;28.02;49.52
70338;BME280;57757;53.198;19.646;2022-08-19T07:40:45;99776.62;;;28.13;49.45
70338;BME280;57757;53.198;19.646;2022-08-19T07:43:14;99775.86;;;28.25;49.42
70338;BME280;57757;53.198;19.646;2022-08-19T07:45:44;99775.02;;;28.35;49.20
70338;BME280;57757;53.198;19.646;2022-08-19T07:48:12;99780.30;;;28.46;49.10
70338;BME280;57757;53.198;19.646;2022-08-19T07:50:41;99784.21;;;28.55;48.92
70338;BME280;57757;53.198;19.646;2022-08-19T07:53:09;99785.13;;;28.65;48.91
70338;BME280;57757;53.198;19.646;2022-08-19T07:55:36;99787.55;;;28.74;48.86
70338;BME280;57757;53.198;19.646;2022-08-19T07:58:12;99782.34;;;28.86;48.70
70338;BME280;57757;53.198;19.646;2022-08-19T08:00:42;99782.40;;;28.94;48.35
70338;BME280;57757;53.198;19.646;2022-08-19T08:03:11;99776.23;;;29.00;48.18
70338;BME280;57757;53.198;19.646;2022-08-19T08:05:39;99774.34;;;29.04;47.96
70338;BME280;57757;53.198;19.646;2022-08-19T08:08:23;99774.77;;;29.10;48.00
70338;BME280;57757;53.198;19.646;2022-08-19T08:11:11;99772.08;;;29.17;47.75
70338;BME280;57757;53.198;19.646;2022-08-19T08:13:42;99769.92;;;29.22;47.61
70338;BME280;57757;53.198;19.646;2022-08-19T08:16:10;99769.23;;;29.29;47.62
70338;BME280;57757;53.198;19.646;2022-08-19T08:18:40;99774.88;;;29.36;47.53
70338;BME280;57757;53.198;19.646;2022-08-19T08:21:19;99777.92;;;29.46;47.32
70338;BME280;57757;53.198;19.646;2022-08-19T08:23:47;99782.23;;;29.55;47.27
70338;BME280;57757;53.198;19.646;2022-08-19T08:26:15;99788.45;;;29.67;47.08
70338;BME280;57757;53.198;19.646;2022-08-19T08:28:45;99785.24;;;29.81;47.05
70338;BME280;57757;53.198;19.646;2022-08-19T08:31:16;99786.54;;;29.98;47.03
70338;BME280;57757;53.198;19.646;2022-08-19T08:33:47;99787.30;;;30.09;46.60
70338;BME280;57757;53.198;19.646;2022-08-19T08:36:16;99783.28;;;30.17;46.66
70338;BME280;57757;53.198;19.646;2022-08-19T08:38:44;99788.11;;;30.25;46.37
70338;BME280;57757;53.198;19.646;2022-08-19T08:41:35;99793.57;;;30.35;46.22
70338;BME280;57757;53.198;19.646;2022-08-19T08:44:05;99792.42;;;30.41;45.94
70338;BME280;57757;53.198;19.646;2022-08-19T08:46:37;99790.40;;;30.50;45.94
70338;BME280;57757;53.198;19.646;2022-08-19T08:49:26;99787.04;;;30.60;45.86
70338;BME280;57757;53.198;19.646;2022-08-19T08:52:05;99789.58;;;30.69;45.66
70338;BME280;57757;53.198;19.646;2022-08-19T08:54:42;99786.95;;;30.78;45.42
70338;BME280;57757;53.198;19.646;2022-08-19T08:57:39;99784.86;;;30.90;45.47
70338;BME280;57757;53.198;19.646;2022-08-19T09:00:30;99783.94;;;31.03;45.22
70338;BME280;57757;53.198;19.646;2022-08-19T09:02:59;99789.99;;;31.16;44.85
70338;BME280;57757;53.198;19.646;2022-08-19T09:09:05;99790.69;;;31.33;44.48
70338;BME280;57757;53.198;19.646;2022-08-19T09:11:47;99784.80;;;31.41;44.22
70338;BME280;57757;53.198;19.646;2022-08-19T09:14:21;99790.65;;;31.50;44.10
70338;BME280;57757;53.198;19.646;2022-08-19T09:17:12;99793.10;;;31.60;43.83
70338;BME280;57757;53.198;19.646;2022-08-19T09:20:32;99792.33;;;31.72;43.92
70338;BME280;57757;53.198;19.646;2022-08-19T09:22:42;99790.95;;;31.96;43.72
70338;BME280;57757;53.198;19.646;2022-08-19T09:25:16;99790.15;;;32.13;43.43
70338;BME280;57757;53.198;19.646;2022-08-19T09:27:54;99782.66;;;32.29;43.25
70338;BME280;57757;53.198;19.646;2022-08-19T09:30:33;99787.05;;;32.39;43.09
70338;BME280;57757;53.198;19.646;2022-08-19T09:33:01;99790.20;;;32.53;42.88
70338;BME280;57757;53.198;19.646;2022-08-19T09:35:30;99786.27;;;32.69;43.03
70338;BME280;57757;53.198;19.646;2022-08-19T09:37:58;99784.98;;;32.90;42.73
70338;BME280;57757;53.198;19.646;2022-08-19T09:40:27;99783.02;;;33.07;42.72
70338;BME280;57757;53.198;19.646;2022-08-19T09:42:57;99779.02;;;33.26;42.32
70338;BME280;57757;53.198;19.646;2022-08-19T09:45:36;99782.23;;;33.47;42.24
70338;BME280;57757;53.198;19.646;2022-08-19T09:48:04;99782.39;;;33.69;41.93
70338;BME280;57757;53.198;19.646;2022-08-19T09:50:33;99785.73;;;33.88;41.89
70338;BME280;57757;53.198;19.646;2022-08-19T09:53:01;99785.23;;;33.97;41.25
70338;BME280;57757;53.198;19.646;2022-08-19T09:55:29;99782.48;;;33.96;41.16
70338;BME280;57757;53.198;19.646;2022-08-19T09:58:00;99776.42;;;34.04;40.84
70338;BME280;57757;53.198;19.646;2022-08-19T10:00:28;99778.44;;;34.06;40.76
70338;BME280;57757;53.198;19.646;2022-08-19T10:02:59;99777.39;;;34.14;40.77
70338;BME280;57757;53.198;19.646;2022-08-19T10:05:27;99764.97;;;34.23;40.48
70338;BME280;57757;53.198;19.646;2022-08-19T10:08:21;99759.77;;;34.35;40.30
70338;BME280;57757;53.198;19.646;2022-08-19T10:10:54;99754.88;;;34.53;40.57
70338;BME280;57757;53.198;19.646;2022-08-19T10:13:26;99749.52;;;34.82;40.46
70338;BME280;57757;53.198;19.646;2022-08-19T10:15:56;99748.50;;;35.15;40.07
70338;BME280;57757;53.198;19.646;2022-08-19T10:18:24;99751.45;;;35.42;40.10
70338;BME280;57757;53.198;19.646;2022-08-19T10:21:10;99754.60;;;35.58;39.31
70338;BME280;57757;53.198;19.646;2022-08-19T10:23:39;99743.01;;;35.60;38.86
70338;BME280;57757;53.198;19.646;2022-08-19T10:26:07;99745.92;;;35.58;38.68
70338;BME280;57757;53.198;19.646;2022-08-19T10:28:36;99738.69;;;35.70;38.92
70338;BME280;57757;53.198;19.646;2022-08-19T10:31:12;99719.73;;;35.99;39.16
70338;BME280;57757;53.198;19.646;2022-08-19T10:33:41;99729.58;;;36.18;38.31
70338;BME280;57757;53.198;19.646;2022-08-19T10:36:23;99731.58;;;36.27;38.42
70338;BME280;57757;53.198;19.646;2022-08-19T10:38:53;99725.74;;;36.45;38.19
70338;BME280;57757;53.198;19.646;2022-08-19T10:41:27;99728.32;;;36.54;37.94
70338;BME280;57757;53.198;19.646;2022-08-19T10:44:00;99730.28;;;36.69;37.84
70338;BME280;57757;53.198;19.646;2022-08-19T10:46:32;99720.33;;;36.84;37.48
70338;BME280;57757;53.198;19.646;2022-08-19T10:49:02;99719.14;;;36.99;37.38
70338;BME280;57757;53.198;19.646;2022-08-19T10:51:31;99720.98;;;37.13;36.85
70338;BME280;57757;53.198;19.646;2022-08-19T10:54:16;99723.42;;;37.26;36.74
70338;BME280;57757;53.198;19.646;2022-08-19T10:56:58;99723.00;;;37.37;36.48
70338;BME280;57757;53.198;19.646;2022-08-19T10:59:29;99720.84;;;37.44;36.17
70338;BME280;57757;53.198;19.646;2022-08-19T11:02:04;99722.84;;;37.43;35.96
70338;BME280;57757;53.198;19.646;2022-08-19T11:04:31;99719.26;;;37.42;35.87
70338;BME280;57757;53.198;19.646;2022-08-19T11:07:03;99710.48;;;37.39;35.67
70338;BME280;57757;53.198;19.646;2022-08-19T11:09:31;99706.77;;;37.38;35.42
70338;BME280;57757;53.198;19.646;2022-08-19T11:12:04;99708.22;;;37.47;35.33
70338;BME280;57757;53.198;19.646;2022-08-19T11:14:32;99706.35;;;37.52;35.17
70338;BME280;57757;53.198;19.646;2022-08-19T11:17:03;99707.73;;;37.54;35.18
70338;BME280;57757;53.198;19.646;2022-08-19T11:19:31;99699.66;;;37.69;35.13
70338;BME280;57757;53.198;19.646;2022-08-19T11:21:59;99706.41;;;37.89;34.75
70338;BME280;57757;53.198;19.646;2022-08-19T11:24:30;99707.39;;;38.03;34.69
70338;BME280;57757;53.198;19.646;2022-08-19T11:27:05;99697.34;;;38.30;34.76
70338;BME280;57757;53.198;19.646;2022-08-19T11:29:35;99689.64;;;38.70;34.57
70338;BME280;57757;53.198;19.646;2022-08-19T11:32:09;99691.20;;;38.93;34.09
70338;BME280;57757;53.198;19.646;2022-08-19T11:34:37;99692.94;;;38.82;33.84
70338;BME280;57757;53.198;19.646;2022-08-19T11:37:05;99694.59;;;38.75;33.68
70338;BME280;57757;53.198;19.646;2022-08-19T11:39:34;99692.67;;;38.75;33.63
70338;BME280;57757;53.198;19.646;2022-08-19T11:42:05;99685.98;;;38.81;33.44
70338;BME280;57757;53.198;19.646;2022-08-19T11:44:53;99690.00;;;38.67;33.00
70338;BME280;57757;53.198;19.646;2022-08-19T11:47:21;99686.04;;;38.46;32.94
70338;BME280;57757;53.198;19.646;2022-08-19T11:49:49;99691.84;;;38.11;32.63
70338;BME280;57757;53.198;19.646;2022-08-19T11:52:16;99694.77;;;37.89;32.81
70338;BME280;57757;53.198;19.646;2022-08-19T11:54:44;99686.79;;;37.83;32.82
70338;BME280;57757;53.198;19.646;2022-08-19T11:57:11;99682.13;;;38.00;32.58
70338;BME280;57757;53.198;19.646;2022-08-19T11:59:39;99674.19;;;38.25;32.30
70338;BME280;57757;53.198;19.646;2022-08-19T12:02:07;99673.58;;;38.38;32.20
70338;BME280;57757;53.198;19.646;2022-08-19T12:04:34;99677.60;;;38.42;32.08
70338;BME280;57757;53.198;19.646;2022-08-19T12:07:01;99677.17;;;38.55;31.65
70338;BME280;57757;53.198;19.646;2022-08-19T12:09:30;99670.89;;;38.72;31.56
70338;BME280;57757;53.198;19.646;2022-08-19T12:11:59;99668.34;;;38.95;31.49
70338;BME280;57757;53.198;19.646;2022-08-19T12:14:28;99670.14;;;39.18;31.05
70338;BME280;57757;53.198;19.646;2022-08-19T12:16:57;99665.70;;;39.35;31.06
70338;BME280;57757;53.198;19.646;2022-08-19T12:19:25;99665.53;;;39.38;30.61
70338;BME280;57757;53.198;19.646;2022-08-19T12:21:59;99663.59;;;39.42;30.67
70338;BME280;57757;53.198;19.646;2022-08-19T12:24:32;99664.79;;;39.60;30.36
70338;BME280;57757;53.198;19.646;2022-08-19T12:26:59;99662.26;;;39.81;30.16
70338;BME280;57757;53.198;19.646;2022-08-19T12:29:30;99657.63;;;39.86;29.86
70338;BME280;57757;53.198;19.646;2022-08-19T12:31:58;99654.86;;;39.86;29.91
70338;BME280;57757;53.198;19.646;2022-08-19T12:34:31;99656.78;;;40.06;29.75
70338;BME280;57757;53.198;19.646;2022-08-19T12:37:01;99654.26;;;40.45;29.85
70338;BME280;57757;53.198;19.646;2022-08-19T12:39:36;99652.30;;;40.84;29.37
70338;BME280;57757;53.198;19.646;2022-08-19T12:42:04;99647.98;;;40.78;29.23
70338;BME280;57757;53.198;19.646;2022-08-19T12:44:32;99646.23;;;40.43;29.05
70338;BME280;57757;53.198;19.646;2022-08-19T12:47:01;99643.02;;;39.92;28.93
70338;BME280;57757;53.198;19.646;2022-08-19T12:49:32;99643.92;;;39.50;29.11
70338;BME280;57757;53.198;19.646;2022-08-19T12:52:25;99636.70;;;39.29;29.16
70338;BME280;57757;53.198;19.646;2022-08-19T12:54:54;99634.98;;;39.57;29.21
70338;BME280;57757;53.198;19.646;2022-08-19T12:57:24;99631.92;;;39.59;28.96
70338;BME280;57757;53.198;19.646;2022-08-19T13:00:16;99636.39;;;39.37;28.55
70338;BME280;57757;53.198;19.646;2022-08-19T13:02:45;99640.62;;;39.54;28.98
70338;BME280;57757;53.198;19.646;2022-08-19T13:05:16;99639.67;;;39.98;28.66
70338;BME280;57757;53.198;19.646;2022-08-19T13:07:44;99641.71;;;40.44;28.50
70338;BME280;57757;53.198;19.646;2022-08-19T13:10:14;99638.64;;;40.67;28.42
70338;BME280;57757;53.198;19.646;2022-08-19T13:12:44;99638.27;;;40.78;28.37
70338;BME280;57757;53.198;19.646;2022-08-19T13:15:13;99633.64;;;41.03;28.19
70338;BME280;57757;53.198;19.646;2022-08-19T13:17:44;99639.81;;;41.40;28.07
70338;BME280;57757;53.198;19.646;2022-08-19T13:20:12;99642.85;;;41.81;27.81